createdAt,value
2018-03-24T00:00:54.963Z,5.33
2018-03-24T00:03:22.702Z,5.40
2018-03-24T00:05:50.400Z,5.50
2018-03-24T00:08:18.152Z,5.40
2018-03-24T00:10:45.830Z,5.70
2018-03-24T00:13:13.534Z,6.40
2018-03-24T00:15:41.226Z,5.90
2018-03-24T00:18:08.985Z,5.37
2018-03-24T00:20:36.762Z,5.60
2018-03-24T00:23:04.487Z,6.00
2018-03-24T00:25:32.180Z,6.37
2018-03-24T00:27:59.856Z,5.40
2018-03-24T00:30:27.596Z,6.10
2018-03-24T00:32:55.270Z,6.23
2018-03-24T00:35:23.850Z,6.03
2018-03-24T00:37:52.047Z,6.47
2018-03-24T00:40:19.759Z,5.73
2018-03-24T00:42:47.441Z,6.97
2018-03-24T00:45:15.161Z,6.30
2018-03-24T00:47:42.879Z,6.47
2018-03-24T00:50:10.559Z,5.80
2018-03-24T00:52:38.284Z,6.50
2018-03-24T00:55:05.965Z,6.47
2018-03-24T00:57:33.692Z,6.20
2018-03-24T01:00:01.382Z,6.67
2018-03-24T01:02:29.116Z,6.57
2018-03-24T01:04:56.801Z,6.30
2018-03-24T01:07:24.567Z,6.30
2018-03-24T01:09:52.232Z,6.77
2018-03-24T01:12:19.975Z,6.90
2018-03-24T01:14:47.664Z,6.70
2018-03-24T01:17:15.384Z,6.70
2018-03-24T01:19:43.127Z,7.43
2018-03-24T01:22:12.093Z,6.90
2018-03-24T01:24:39.770Z,7.23
2018-03-24T01:27:07.529Z,7.47
2018-03-24T01:29:35.218Z,7.57
2018-03-24T01:32:02.956Z,8.00
2018-03-24T01:34:30.645Z,8.07
2018-03-24T01:36:58.327Z,7.67
2018-03-24T01:39:26.082Z,7.50
2018-03-24T01:41:53.773Z,7.77
2018-03-24T01:44:21.495Z,7.30
2018-03-24T01:46:49.174Z,7.53
2018-03-24T01:49:16.903Z,7.50
2018-03-24T01:51:44.581Z,8.03
2018-03-24T01:54:12.314Z,7.83
2018-03-24T01:56:39.992Z,7.57
2018-03-24T01:59:07.719Z,7.70
2018-03-24T02:01:35.420Z,8.33
2018-03-24T02:04:03.166Z,8.43
2018-03-24T02:06:30.838Z,8.73
2018-03-24T02:08:58.579Z,8.30
2018-03-24T02:11:26.273Z,7.63
2018-03-24T02:13:53.955Z,8.60
2018-03-24T02:16:21.673Z,9.10
2018-03-24T02:18:49.376Z,9.30
2018-03-24T02:21:17.183Z,8.07
2018-03-24T02:23:44.858Z,8.50
2018-03-24T02:26:12.610Z,9.03
2018-03-24T02:28:40.294Z,8.50
2018-03-24T02:31:08.034Z,8.73
2018-03-24T02:33:35.756Z,8.73
2018-03-24T02:36:03.890Z,9.30
2018-03-24T02:38:31.573Z,8.70
2018-03-24T02:40:59.296Z,8.77
2018-03-24T02:43:26.999Z,8.00
2018-03-24T02:45:54.773Z,9.90
2018-03-24T02:48:22.470Z,9.50
2018-03-24T02:50:50.204Z,8.47
2018-03-24T02:53:17.885Z,10.27
2018-03-24T02:55:45.606Z,9.63
2018-03-24T02:58:13.299Z,10.13
2018-03-24T03:00:40.993Z,10.07
2018-03-24T03:03:08.727Z,9.63
2018-03-24T03:05:36.440Z,9.50
2018-03-24T03:08:04.173Z,9.73
2018-03-24T03:10:31.878Z,10.57
2018-03-24T03:12:59.635Z,10.70
2018-03-24T03:15:27.354Z,9.93
2018-03-24T03:17:55.099Z,10.20
2018-03-24T03:20:22.848Z,10.50
2018-03-24T03:22:50.591Z,9.73
2018-03-24T03:25:18.290Z,10.57
2018-03-24T03:27:46.029Z,10.40
2018-03-24T03:30:19.548Z,11.23
2018-03-24T03:32:47.294Z,11.20
2018-03-24T03:35:14.980Z,11.40
2018-03-24T03:37:42.712Z,10.50
2018-03-24T03:40:10.421Z,10.60
2018-03-24T03:42:38.162Z,11.00
2018-03-24T03:45:05.876Z,12.00
2018-03-24T03:47:33.643Z,12.10
2018-03-24T03:50:01.330Z,11.87
2018-03-24T03:52:29.102Z,11.23
2018-03-24T03:54:56.808Z,12.33
2018-03-24T03:57:24.516Z,11.60
2018-03-24T03:59:52.265Z,12.37
2018-03-24T04:02:19.966Z,12.40
2018-03-24T04:04:47.694Z,11.13
2018-03-24T04:07:15.402Z,12.50
2018-03-24T04:09:43.135Z,11.07
2018-03-24T04:12:10.836Z,12.90
2018-03-24T04:14:38.580Z,11.73
2018-03-24T04:17:06.283Z,13.10
2018-03-24T04:19:34.068Z,12.90
2018-03-24T04:22:01.766Z,12.03
2018-03-24T04:24:29.504Z,13.10
2018-03-24T04:26:57.206Z,12.70
2018-03-24T04:29:24.984Z,11.80
2018-03-24T04:31:52.683Z,12.43
2018-03-24T04:34:20.382Z,11.63
2018-03-24T04:36:48.131Z,13.37
2018-03-24T04:39:15.826Z,13.07
2018-03-24T04:41:43.595Z,13.67
2018-03-24T04:44:11.300Z,13.27
2018-03-24T04:46:39.046Z,13.33
2018-03-24T04:49:06.743Z,12.50
2018-03-24T04:51:34.491Z,13.10
2018-03-24T04:54:02.185Z,13.60
2018-03-24T04:56:29.929Z,13.73
2018-03-24T04:58:57.637Z,13.70
2018-03-24T05:01:25.402Z,12.40
2018-03-24T05:03:53.135Z,13.93
2018-03-24T05:06:20.893Z,13.70
2018-03-24T05:08:48.607Z,14.00
2018-03-24T05:11:16.348Z,14.10
2018-03-24T05:13:44.060Z,14.00
2018-03-24T05:16:11.764Z,14.27
2018-03-24T05:18:39.515Z,14.10
2018-03-24T05:21:07.280Z,15.43
2018-03-24T05:23:35.023Z,14.90
2018-03-24T05:26:02.718Z,15.40
2018-03-24T05:28:30.482Z,15.23
2018-03-24T05:30:58.171Z,16.07
2018-03-24T05:33:25.931Z,13.43
2018-03-24T05:35:53.627Z,16.10
2018-03-24T05:38:21.381Z,14.67
2018-03-24T05:40:49.090Z,16.57
2018-03-24T05:43:16.845Z,16.83
2018-03-24T05:45:44.553Z,16.30
2018-03-24T05:48:12.248Z,16.50
2018-03-24T05:50:40.014Z,15.37
2018-03-24T05:53:07.740Z,14.73
2018-03-24T05:55:35.483Z,13.90
2018-03-24T05:58:03.201Z,16.23
2018-03-24T06:00:31.010Z,14.97
2018-03-24T06:02:58.771Z,14.10
2018-03-24T06:05:26.513Z,13.87
2018-03-24T06:07:54.227Z,12.70
2018-03-24T06:10:21.960Z,14.50
2018-03-24T06:12:49.686Z,15.60
2018-03-24T06:15:17.437Z,12.03
2018-03-24T06:17:45.162Z,12.47
2018-03-24T06:20:12.942Z,14.90
2018-03-24T06:22:40.694Z,12.63
2018-03-24T06:25:08.414Z,14.63
2018-03-24T06:27:36.173Z,12.30
2018-03-24T06:30:06.380Z,15.47
2018-03-24T06:32:34.161Z,10.10
2018-03-24T06:35:01.886Z,12.87
2018-03-24T06:37:29.682Z,12.93
2018-03-24T06:39:57.372Z,11.27
2018-03-24T06:42:25.162Z,10.73
2018-03-24T06:44:52.910Z,15.43
2018-03-24T06:47:20.742Z,13.90
2018-03-24T06:49:48.467Z,12.63
2018-03-24T06:52:16.207Z,12.20
2018-03-24T06:54:43.982Z,11.73
2018-03-24T06:57:11.711Z,9.47
2018-03-24T06:59:40.456Z,11.10
2018-03-24T07:02:08.199Z,12.57
2018-03-24T07:04:35.966Z,12.10
2018-03-24T07:07:03.710Z,13.27
2018-03-24T07:09:31.479Z,12.47
2018-03-24T07:11:59.180Z,12.90
2018-03-24T07:14:26.998Z,11.70
2018-03-24T07:16:54.761Z,12.80
2018-03-24T07:19:22.532Z,13.70
2018-03-24T07:21:50.326Z,13.80
2018-03-24T07:24:18.053Z,11.57
2018-03-24T07:26:45.819Z,11.73
2018-03-24T07:29:13.525Z,13.23
2018-03-24T07:31:41.319Z,12.90
2018-03-24T07:34:09.039Z,11.63
2018-03-24T07:36:36.808Z,13.40
2018-03-24T07:39:04.589Z,13.20
2018-03-24T07:41:32.393Z,13.30
2018-03-24T07:44:00.130Z,11.87
2018-03-24T07:46:27.898Z,12.20
2018-03-24T07:48:55.597Z,13.30
2018-03-24T07:51:23.354Z,12.07
2018-03-24T07:53:51.097Z,12.20
2018-03-24T07:56:18.823Z,12.03
2018-03-24T07:58:46.578Z,11.43
2018-03-24T08:01:14.313Z,12.97
2018-03-24T08:03:42.059Z,10.10
2018-03-24T08:06:09.780Z,12.33
2018-03-24T08:08:37.591Z,11.70
2018-03-24T08:11:05.351Z,11.80
2018-03-24T08:13:33.154Z,12.27
2018-03-24T08:16:00.904Z,12.37
2018-03-24T08:18:28.659Z,11.90
2018-03-24T08:20:56.451Z,12.07
2018-03-24T08:23:24.189Z,12.60
2018-03-24T08:25:51.894Z,12.93
2018-03-24T08:28:19.630Z,13.07
2018-03-24T08:30:47.366Z,10.90
2018-03-24T08:33:15.162Z,10.47
2018-03-24T08:35:42.887Z,12.70
2018-03-24T08:38:10.646Z,11.73
2018-03-24T08:40:38.374Z,11.10
2018-03-24T08:43:06.091Z,12.67
2018-03-24T08:45:33.790Z,11.87
2018-03-24T08:48:02.330Z,10.90
2018-03-24T08:50:30.094Z,13.10
2018-03-24T08:52:57.816Z,12.60
2018-03-24T08:55:25.574Z,11.93
2018-03-24T08:57:53.298Z,12.70
2018-03-24T09:00:21.047Z,13.10
2018-03-24T09:02:48.757Z,12.83
2018-03-24T09:05:16.516Z,12.90
2018-03-24T09:07:44.218Z,11.77
2018-03-24T09:10:12.006Z,12.67
2018-03-24T09:12:39.719Z,11.07
2018-03-24T09:15:07.526Z,11.90
2018-03-24T09:17:35.262Z,13.00
2018-03-24T09:20:03.086Z,13.70
2018-03-24T09:22:30.810Z,12.70
2018-03-24T09:24:58.588Z,13.37
2018-03-24T09:27:26.290Z,11.73
2018-03-24T09:29:54.017Z,12.80
2018-03-24T09:32:21.755Z,12.67
2018-03-24T09:34:49.491Z,13.47
2018-03-24T09:37:17.217Z,13.47
2018-03-24T09:39:44.979Z,11.73
2018-03-24T09:42:12.716Z,11.93
2018-03-24T09:44:40.471Z,13.20
2018-03-24T09:47:08.186Z,11.77
2018-03-24T09:49:35.960Z,13.30
2018-03-24T09:52:03.674Z,11.70
2018-03-24T09:54:31.455Z,12.70
2018-03-24T09:56:59.194Z,12.67
2018-03-24T09:59:26.965Z,13.40
2018-03-24T10:01:54.699Z,13.70
2018-03-24T10:04:22.427Z,13.60
2018-03-24T10:06:50.173Z,14.53
2018-03-24T10:09:17.894Z,13.50
2018-03-24T10:11:45.661Z,14.37
2018-03-24T10:14:13.390Z,11.90
2018-03-24T10:16:41.228Z,11.10
2018-03-24T10:19:08.942Z,12.60
2018-03-24T10:24:42.003Z,11.37
2018-03-24T10:27:09.691Z,12.27
2018-03-24T10:29:37.411Z,11.43
2018-03-24T10:32:05.174Z,11.07
2018-03-24T10:34:32.907Z,10.73
2018-03-24T10:37:00.650Z,12.77
2018-03-24T10:39:28.375Z,12.30
2018-03-24T10:41:56.118Z,11.80
2018-03-24T10:44:23.861Z,12.67
2018-03-24T10:46:51.627Z,10.83
2018-03-24T10:49:19.334Z,10.23
2018-03-24T10:51:47.119Z,11.33
2018-03-24T10:54:14.863Z,11.20
2018-03-24T10:56:42.636Z,11.30
2018-03-24T10:59:10.379Z,10.73
2018-03-24T11:01:38.131Z,11.00
2018-03-24T11:04:05.889Z,10.53
2018-03-24T11:06:33.667Z,10.33
2018-03-24T11:09:01.371Z,9.67
2018-03-24T11:11:29.127Z,9.97
2018-03-24T11:13:56.846Z,9.60
2018-03-24T11:16:24.610Z,9.90
2018-03-24T11:18:52.332Z,10.60
2018-03-24T11:21:20.127Z,8.07
2018-03-24T11:23:47.873Z,9.63
2018-03-24T11:26:15.661Z,8.90
2018-03-24T11:28:43.398Z,8.20
2018-03-24T11:31:11.122Z,9.90
2018-03-24T11:33:38.847Z,8.93
2018-03-24T11:36:06.630Z,9.10
2018-03-24T11:38:34.349Z,8.50
2018-03-24T11:41:02.131Z,9.03
2018-03-24T11:43:29.857Z,8.40
2018-03-24T11:45:57.618Z,9.90
2018-03-24T11:48:25.338Z,9.90
2018-03-24T11:50:53.090Z,8.80
2018-03-24T11:53:20.834Z,9.70
2018-03-24T11:55:48.619Z,7.70
2018-03-24T11:58:16.359Z,7.70
2018-03-24T12:00:44.132Z,8.90
2018-03-24T12:03:11.872Z,8.50
2018-03-24T12:05:39.619Z,7.90
2018-03-24T12:08:07.381Z,8.33
2018-03-24T12:10:35.108Z,8.30
2018-03-24T12:13:02.850Z,9.13
2018-03-24T12:15:30.582Z,8.47
2018-03-24T12:17:58.313Z,8.27
2018-03-24T12:20:26.111Z,9.67
2018-03-24T12:22:53.866Z,10.23
2018-03-24T12:25:21.557Z,9.67
2018-03-24T12:27:49.285Z,8.90
2018-03-24T12:30:16.998Z,9.80
2018-03-24T12:32:44.718Z,8.73
2018-03-24T12:35:12.471Z,8.83
2018-03-24T12:37:40.250Z,9.37
2018-03-24T12:40:08.097Z,9.57
2018-03-24T12:42:35.854Z,7.90
2018-03-24T12:45:03.605Z,8.00
2018-03-24T12:47:31.383Z,9.10
2018-03-24T12:49:59.075Z,9.00
2018-03-24T12:52:26.830Z,9.40
2018-03-24T12:54:54.551Z,9.23
2018-03-24T12:57:22.314Z,9.10
2018-03-24T12:59:50.031Z,9.43
2018-03-24T13:02:17.782Z,8.97
2018-03-24T13:04:45.494Z,9.03
2018-03-24T13:07:13.217Z,9.50
2018-03-24T13:09:40.918Z,7.90
2018-03-24T13:12:08.719Z,7.60
2018-03-24T13:14:36.437Z,8.20
2018-03-24T13:17:04.239Z,8.90
2018-03-24T13:19:31.987Z,8.37
2018-03-24T13:21:59.755Z,9.40
2018-03-24T13:24:27.455Z,8.97
2018-03-24T13:26:55.195Z,8.20
2018-03-24T13:29:22.919Z,9.13
2018-03-24T13:31:50.683Z,8.90
2018-03-24T13:34:18.410Z,8.70
2018-03-24T13:36:46.195Z,8.93
2018-03-24T13:39:13.915Z,7.93
2018-03-24T13:41:41.646Z,8.80
2018-03-24T13:44:09.375Z,8.90
2018-03-24T13:46:37.138Z,8.23
2018-03-24T13:49:04.878Z,8.93
2018-03-24T13:51:32.591Z,7.90
2018-03-24T13:54:00.436Z,8.80
2018-03-24T13:56:28.168Z,8.30
2018-03-24T13:58:55.975Z,8.40
2018-03-24T14:01:23.703Z,8.90
2018-03-24T14:03:51.451Z,8.43
2018-03-24T14:06:19.144Z,8.90
2018-03-24T14:08:46.898Z,8.37
2018-03-24T14:11:14.620Z,7.90
2018-03-24T14:13:42.363Z,8.33
2018-03-24T14:16:10.065Z,8.80
2018-03-24T14:18:37.881Z,8.27
2018-03-24T14:21:05.644Z,8.77
2018-03-24T14:23:33.397Z,9.40
2018-03-24T14:26:01.130Z,7.93
2018-03-24T14:28:28.898Z,9.07
2018-03-24T14:30:56.674Z,9.83
2018-03-24T14:33:24.421Z,7.87
2018-03-24T14:35:52.112Z,9.03
2018-03-24T14:38:19.883Z,8.13
2018-03-24T14:40:47.639Z,9.27
2018-03-24T14:43:15.519Z,8.53
2018-03-24T14:45:43.180Z,8.40
2018-03-24T14:48:10.995Z,8.83
2018-03-24T14:50:38.726Z,8.60
2018-03-24T14:53:06.510Z,7.87
2018-03-24T14:55:34.249Z,8.70
2018-03-24T14:58:01.981Z,9.47
2018-03-24T15:00:29.702Z,9.33
2018-03-24T15:02:57.477Z,9.17
2018-03-24T15:05:25.202Z,8.67
2018-03-24T15:07:52.926Z,8.97
2018-03-24T15:10:20.651Z,8.10
2018-03-24T15:12:48.446Z,9.27
2018-03-24T15:15:16.154Z,8.90
2018-03-24T15:17:43.872Z,8.67
2018-03-24T15:20:11.696Z,8.63
2018-03-24T15:22:39.429Z,8.63
2018-03-24T15:25:07.132Z,8.30
2018-03-24T15:27:34.895Z,9.33
2018-03-24T15:30:14.454Z,9.67
2018-03-24T15:32:49.928Z,9.83
2018-03-24T15:35:32.966Z,10.60
2018-03-24T15:38:00.787Z,11.30
2018-03-24T15:40:28.610Z,8.33
2018-03-24T15:42:56.427Z,9.03
2018-03-24T15:45:24.191Z,9.40
2018-03-24T15:47:51.956Z,9.27
2018-03-24T15:50:19.667Z,10.30
2018-03-24T15:52:47.456Z,9.50
2018-03-24T15:55:15.185Z,8.97
2018-03-24T15:57:42.895Z,9.77
2018-03-24T16:00:10.655Z,10.13
2018-03-24T16:02:38.334Z,9.40
2018-03-24T16:05:06.107Z,9.57
2018-03-24T16:07:33.798Z,9.10
2018-03-24T16:10:01.529Z,9.47
2018-03-24T16:12:29.219Z,9.70
2018-03-24T16:14:56.939Z,9.13
2018-03-24T16:17:24.655Z,9.33
2018-03-24T16:19:52.441Z,9.47
2018-03-24T16:22:20.164Z,10.47
2018-03-24T16:24:47.914Z,10.60
2018-03-24T16:27:15.634Z,10.57
2018-03-24T16:29:43.399Z,11.10
2018-03-24T16:32:11.118Z,10.33
2018-03-24T16:34:38.846Z,9.60
2018-03-24T16:37:06.594Z,10.03
2018-03-24T16:39:34.360Z,10.30
2018-03-24T16:42:02.158Z,10.50
2018-03-24T16:44:29.926Z,11.80
2018-03-24T16:46:57.661Z,11.47
2018-03-24T16:49:25.463Z,10.50
2018-03-24T16:51:53.206Z,9.60
2018-03-24T16:54:20.950Z,9.00
2018-03-24T16:56:48.643Z,8.60
2018-03-24T16:59:16.419Z,9.37
2018-03-24T17:01:44.147Z,9.63
2018-03-24T17:04:11.914Z,9.00
2018-03-24T17:06:39.645Z,8.27
2018-03-24T17:09:07.399Z,9.57
2018-03-24T17:11:35.130Z,8.77
2018-03-24T17:14:02.894Z,8.50
2018-03-24T17:16:30.597Z,7.93
2018-03-24T17:18:58.364Z,8.47
2018-03-24T17:21:26.130Z,8.33
2018-03-24T17:23:53.849Z,8.93
2018-03-24T17:26:21.548Z,9.33
2018-03-24T17:28:49.331Z,9.60
2018-03-24T17:31:17.040Z,10.00
2018-03-24T17:33:44.802Z,10.07
2018-03-24T17:36:12.533Z,9.13
2018-03-24T17:38:40.262Z,9.20
2018-03-24T17:41:08.015Z,9.60
2018-03-24T17:43:35.730Z,9.07
2018-03-24T17:46:03.524Z,8.80
2018-03-24T17:48:31.229Z,10.10
2018-03-24T17:50:58.999Z,9.27
2018-03-24T17:53:26.735Z,10.10
2018-03-24T17:55:54.456Z,9.47
2018-03-24T17:58:22.146Z,9.87
2018-03-24T18:00:49.874Z,12.13
2018-03-24T18:03:17.610Z,12.63
2018-03-24T18:05:45.378Z,14.93
2018-03-24T18:08:13.130Z,13.10
2018-03-24T18:10:40.886Z,14.40
2018-03-24T18:13:08.588Z,12.43
2018-03-24T18:15:36.325Z,14.17
2018-03-24T18:18:04.062Z,13.20
2018-03-24T18:20:31.918Z,16.20
2018-03-24T18:22:59.614Z,20.03
2018-03-24T18:25:27.383Z,23.30
2018-03-24T18:27:55.078Z,17.03
2018-03-24T18:30:22.831Z,17.10
2018-03-24T18:32:50.558Z,14.73
2018-03-24T18:35:18.323Z,15.50
2018-03-24T18:37:46.054Z,17.33
2018-03-24T18:40:13.798Z,18.03
2018-03-24T18:42:41.518Z,17.00
2018-03-24T18:45:09.287Z,16.13
2018-03-24T18:47:37.012Z,16.60
2018-03-24T18:50:04.788Z,15.83
2018-03-24T18:52:32.506Z,14.77
2018-03-24T18:55:00.260Z,15.00
2018-03-24T18:57:27.982Z,15.00
2018-03-24T18:59:55.738Z,14.20
2018-03-24T19:02:23.454Z,13.17
2018-03-24T19:04:51.209Z,15.07
2018-03-24T19:07:18.943Z,13.27
2018-03-24T19:09:46.703Z,14.50
2018-03-24T19:12:14.370Z,14.10
2018-03-24T19:14:42.163Z,14.90
2018-03-24T19:17:09.886Z,14.23
2018-03-24T19:19:37.660Z,12.10
2018-03-24T19:22:05.397Z,15.00
2018-03-24T19:24:33.101Z,13.20
2018-03-24T19:27:00.846Z,14.23
2018-03-24T19:29:28.530Z,12.60
2018-03-24T19:31:56.296Z,14.20
2018-03-24T19:34:23.986Z,12.93
2018-03-24T19:36:51.762Z,12.70
2018-03-24T19:39:19.471Z,12.70
2018-03-24T19:41:47.230Z,13.10
2018-03-24T19:44:14.955Z,12.70
2018-03-24T19:46:42.694Z,13.10
2018-03-24T19:49:10.423Z,13.17
2018-03-24T19:51:38.197Z,13.70
2018-03-24T19:54:05.945Z,13.20
2018-03-24T19:56:33.762Z,13.70
2018-03-24T19:59:01.502Z,13.57
2018-03-24T20:01:29.344Z,14.10
2018-03-24T20:03:57.187Z,13.83
2018-03-24T20:06:24.912Z,13.40
2018-03-24T20:08:52.599Z,13.93
2018-03-24T20:11:20.363Z,13.30
2018-03-24T20:13:48.091Z,12.07
2018-03-24T20:16:15.836Z,12.03
2018-03-24T20:18:43.532Z,13.00
2018-03-24T20:21:11.339Z,13.07
2018-03-24T20:23:39.144Z,12.47
2018-03-24T20:26:06.981Z,13.20
2018-03-24T20:28:34.723Z,13.23
2018-03-24T20:31:02.527Z,13.10
2018-03-24T20:33:30.282Z,13.57
2018-03-24T20:35:58.127Z,14.47
2018-03-24T20:38:25.845Z,13.60
2018-03-24T20:40:53.703Z,15.00
2018-03-24T20:43:21.531Z,14.57
2018-03-24T20:45:49.371Z,15.23
2018-03-24T20:48:17.094Z,14.90
2018-03-24T20:50:44.904Z,15.53
2018-03-24T20:53:12.646Z,15.03
2018-03-24T20:55:40.496Z,15.20
2018-03-24T20:58:08.216Z,13.80
2018-03-24T21:00:36.026Z,13.80
2018-03-24T21:03:03.839Z,15.03
2018-03-24T21:05:31.569Z,15.30
2018-03-24T21:07:59.408Z,14.60
2018-03-24T21:10:27.167Z,14.30
2018-03-24T21:12:55.007Z,13.70
2018-03-24T21:15:22.822Z,14.70
2018-03-24T21:17:50.555Z,14.60
2018-03-24T21:20:18.338Z,15.73
2018-03-24T21:22:46.106Z,16.27
2018-03-24T21:25:13.847Z,15.83
2018-03-24T21:27:41.722Z,15.40
2018-03-24T21:30:09.552Z,15.33
2018-03-24T21:32:37.355Z,15.03
2018-03-24T21:35:05.094Z,16.43
2018-03-24T21:37:32.943Z,17.40
2018-03-24T21:40:00.682Z,16.77
2018-03-24T21:42:28.518Z,15.10
2018-03-24T21:44:56.281Z,16.00
2018-03-24T21:47:24.057Z,15.40
2018-03-24T21:49:51.794Z,15.70
2018-03-24T21:52:19.630Z,15.17
2018-03-24T21:54:47.366Z,14.83
2018-03-24T21:57:15.215Z,15.93
2018-03-24T21:59:42.934Z,16.00
2018-03-24T22:02:10.768Z,16.27
2018-03-24T22:04:38.540Z,16.00
2018-03-24T22:07:06.328Z,16.87
2018-03-24T22:09:34.076Z,16.37
2018-03-24T22:12:01.939Z,15.50
2018-03-24T22:14:29.783Z,14.13
2018-03-24T22:16:57.651Z,16.90
2018-03-24T22:19:25.418Z,15.70
2018-03-24T22:21:53.198Z,18.00
2018-03-24T22:24:20.992Z,17.60
2018-03-24T22:26:49.035Z,16.93
2018-03-24T22:29:16.759Z,16.80
2018-03-24T22:31:44.596Z,17.67
2018-03-24T22:34:12.341Z,16.60
2018-03-24T22:36:40.182Z,17.20
2018-03-24T22:39:07.901Z,16.40
2018-03-24T22:41:35.649Z,16.70
2018-03-24T22:44:03.446Z,16.30
2018-03-24T22:46:31.149Z,15.37
2018-03-24T22:48:59.058Z,17.57
2018-03-24T22:51:26.870Z,15.43
2018-03-24T22:53:54.666Z,15.80
2018-03-24T22:56:22.414Z,15.93
2018-03-24T22:58:50.222Z,17.40
2018-03-24T23:01:20.974Z,17.20
2018-03-24T23:03:48.777Z,17.83
2018-03-24T23:06:16.506Z,20.03
2018-03-24T23:08:44.366Z,18.27
2018-03-24T23:11:12.089Z,17.83
2018-03-24T23:13:39.932Z,17.60
2018-03-24T23:16:07.740Z,17.83
2018-03-24T23:18:35.581Z,16.70
2018-03-24T23:21:03.414Z,16.87
2018-03-24T23:23:31.263Z,17.70
2018-03-24T23:25:58.993Z,17.17
2018-03-24T23:28:26.842Z,17.50
2018-03-24T23:30:54.682Z,15.10
2018-03-24T23:33:22.522Z,15.57
2018-03-24T23:35:50.353Z,14.97
2018-03-24T23:38:18.155Z,16.17
2018-03-24T23:40:45.922Z,16.80
2018-03-24T23:43:13.721Z,16.47
2018-03-24T23:45:41.468Z,17.10
2018-03-24T23:48:09.288Z,17.80
2018-03-24T23:50:37.042Z,18.00
2018-03-24T23:53:04.882Z,16.23
2018-03-24T23:55:32.917Z,17.60
2018-03-24T23:58:00.655Z,16.97
